Time;durP1;ratioP1;P1;durP2;ratioP2;P2;SDS_P1;SDS_P2;PMS_P1;PMS_P2;Temp;Humidity;BMP_temperature;BMP_pressure;BME280_temperature;BME280_humidity;BME280_pressure;Samples;Min_cycle;Max_cycle;Signal;HPM_P1;HPM_P2
2023/12/24 00:02:47;;;;;;;0.60;0.60;;;;;;;;;;10452853;23;20045;-75
2023/12/24 00:07:50;;;;;;;1.33;0.40;;;;;;;;;;10429473;28;20413;-75
2023/12/24 00:12:54;;;;;;;0.93;0.80;;;;;;;;;;10436647;28;20035;-75
2023/12/24 00:17:58;;;;;;;1.35;0.80;;;;;;;;;;10430895;28;20044;-75
2023/12/24 00:23:05;;;;;;;0.80;0.65;;;;;;;;;;10440078;28;20048;-75
2023/12/24 00:28:09;;;;;;;1.67;1.08;;;;;;;;;;10440489;28;20053;-75
2023/12/24 00:33:13;;;;;;;1.90;1.40;;;;;;;;;;10419320;28;20047;-75
2023/12/24 00:38:16;;;;;;;1.35;0.52;;;;;;;;;;10432579;28;20052;-75
2023/12/24 00:43:21;;;;;;;1.55;0.75;;;;;;;;;;10416080;28;20049;-75
2023/12/24 00:48:24;;;;;;;0.40;0.40;;;;;;;;;;10431750;28;20450;-75
2023/12/24 00:53:27;;;;;;;1.15;0.50;;;;;;;;;;10430783;28;20520;-75
2023/12/24 00:58:32;;;;;;;0.50;0.50;;;;;;;;;;10428856;28;20040;-75
2023/12/24 01:03:35;;;;;;;1.50;0.63;;;;;;;;;;10415402;28;20132;-74
2023/12/24 01:08:38;;;;;;;1.13;0.43;;;;;;;;;;10437346;28;20071;-75
2023/12/24 01:13:43;;;;;;;1.95;0.50;;;;;;;;;;10436718;28;20034;-75
2023/12/24 01:18:47;;;;;;;0.47;0.35;;;;;;;;;;10416325;28;20056;-75
2023/12/24 01:23:50;;;;;;;0.57;0.43;;;;;;;;;;10416593;28;20081;-75
2023/12/24 01:28:55;;;;;;;2.67;0.50;;;;;;;;;;10419265;28;20049;-75
2023/12/24 01:33:58;;;;;;;1.42;0.70;;;;;;;;;;10414826;28;20123;-75
2023/12/24 01:39:01;;;;;;;0.50;0.40;;;;;;;;;;10434638;28;20072;-75
2023/12/24 01:44:06;;;;;;;2.25;0.60;;;;;;;;;;10416064;28;20091;-75
2023/12/24 01:49:11;;;;;;;0.90;0.60;;;;;;;;;;10446796;28;20671;-75
2023/12/24 01:54:14;;;;;;;0.85;0.57;;;;;;;;;;10441997;28;20385;-75
2023/12/24 01:59:22;;;;;;;0.80;0.57;;;;;;;;;;10435158;28;20055;-75
2023/12/24 02:04:25;;;;;;;1.58;0.40;;;;;;;;;;10412934;28;20132;-75
2023/12/24 02:09:28;;;;;;;0.40;0.40;;;;;;;;;;10407716;28;20046;-75
2023/12/24 02:14:33;;;;;;;0.98;0.50;;;;;;;;;;10411652;28;20047;-74
2023/12/24 02:19:37;;;;;;;1.40;0.60;;;;;;;;;;10448338;28;20037;-74
2023/12/24 02:24:43;;;;;;;0.63;0.60;;;;;;;;;;10414545;28;20037;-75
2023/12/24 02:29:50;;;;;;;1.50;0.80;;;;;;;;;;10443110;28;20471;-75
2023/12/24 02:34:57;;;;;;;1.90;0.70;;;;;;;;;;10438810;28;20048;-75
2023/12/24 02:40:03;;;;;;;;;;;;;;;;;;10439966;28;20067;-75
2023/12/24 02:45:07;;;;;;;1.02;0.70;;;;;;;;;;10445629;28;19924;-75
2023/12/24 02:50:11;;;;;;;2.33;0.90;;;;;;;;;;10421859;28;20049;-73
2023/12/24 02:55:15;;;;;;;1.50;0.70;;;;;;;;;;10442220;28;20143;-73
2023/12/24 03:00:19;;;;;;;2.30;0.90;;;;;;;;;;10422413;28;20037;-73
2023/12/24 03:05:22;;;;;;;1.42;1.02;;;;;;;;;;10427941;28;20734;-73
2023/12/24 03:10:27;;;;;;;0.90;0.60;;;;;;;;;;10445442;28;20140;-73
2023/12/24 03:15:30;;;;;;;2.72;0.85;;;;;;;;;;10436505;28;20041;-73
2023/12/24 03:20:33;;;;;;;1.27;0.80;;;;;;;;;;10421509;28;20091;-72
2023/12/24 03:25:38;;;;;;;1.77;0.70;;;;;;;;;;10438378;28;20469;-73
2023/12/24 03:30:41;;;;;;;1.23;0.70;;;;;;;;;;10438119;28;20479;-73
2023/12/24 03:35:45;;;;;;;1.10;0.80;;;;;;;;;;10440715;28;20398;-72
2023/12/24 03:40:49;;;;;;;1.95;0.70;;;;;;;;;;10439240;28;20047;-73
2023/12/24 03:45:52;;;;;;;1.65;0.60;;;;;;;;;;10418041;28;20037;-72
2023/12/24 03:50:56;;;;;;;1.63;0.65;;;;;;;;;;10423561;28;20132;-73
2023/12/24 03:56:00;;;;;;;0.80;0.50;;;;;;;;;;10421278;28;20053;-73
2023/12/24 04:01:08;;;;;;;0.50;0.50;;;;;;;;;;10443555;28;20390;-73
2023/12/24 04:06:13;;;;;;;0.40;0.40;;;;;;;;;;10425446;28;20056;-73
2023/12/24 04:11:19;;;;;;;0.88;0.50;;;;;;;;;;10433519;28;20545;-73
2023/12/24 04:16:24;;;;;;;1.08;0.60;;;;;;;;;;10423366;28;20037;-73
2023/12/24 04:21:30;;;;;;;0.40;0.40;;;;;;;;;;10419634;28;20037;-72
2023/12/24 04:26:37;;;;;;;0.40;0.30;;;;;;;;;;10438618;28;20078;-73
2023/12/24 04:31:41;;;;;;;0.52;0.40;;;;;;;;;;10417272;28;20730;-73
2023/12/24 04:36:44;;;;;;;0.40;0.40;;;;;;;;;;10412989;28;20120;-73
2023/12/24 04:41:50;;;;;;;0.35;0.30;;;;;;;;;;10421172;28;20475;-73
2023/12/24 04:46:53;;;;;;;0.55;0.35;;;;;;;;;;10416667;28;20549;-73
2023/12/24 04:51:57;;;;;;;0.55;0.55;;;;;;;;;;10417473;28;20072;-73
2023/12/24 04:57:02;;;;;;;0.55;0.40;;;;;;;;;;10415746;28;20049;-73
2023/12/24 05:02:05;;;;;;;1.25;0.30;;;;;;;;;;10439614;28;20037;-73
2023/12/24 05:07:09;;;;;;;0.40;0.40;;;;;;;;;;10423515;28;20053;-73
2023/12/24 05:12:14;;;;;;;0.40;0.40;;;;;;;;;;10435283;28;20049;-73
2023/12/24 05:17:17;;;;;;;1.25;0.40;;;;;;;;;;10443099;28;20768;-73
2023/12/24 05:22:21;;;;;;;0.32;0.32;;;;;;;;;;10444746;28;20107;-73
2023/12/24 05:27:26;;;;;;;1.95;0.30;;;;;;;;;;10416037;28;20041;-73
2023/12/24 05:32:29;;;;;;;0.40;0.38;;;;;;;;;;10436073;28;20041;-74
2023/12/24 05:37:33;;;;;;;0.43;0.40;;;;;;;;;;10446013;28;20053;-73
2023/12/24 05:42:37;;;;;;;0.22;0.22;;;;;;;;;;10448330;28;20044;-73
2023/12/24 05:47:41;;;;;;;0.47;0.35;;;;;;;;;;10449900;28;20482;-73
2023/12/24 05:52:44;;;;;;;0.30;0.30;;;;;;;;;;10423117;28;20077;-73
2023/12/24 05:57:49;;;;;;;0.73;0.20;;;;;;;;;;10442304;28;20638;-73
2023/12/24 06:02:52;;;;;;;0.28;0.20;;;;;;;;;;10456390;23;20049;-75
2023/12/24 06:07:56;;;;;;;0.32;0.20;;;;;;;;;;10441311;28;20041;-74
2023/12/24 06:13:00;;;;;;;0.30;0.30;;;;;;;;;;10448874;28;20414;-75
2023/12/24 06:18:04;;;;;;;0.20;0.20;;;;;;;;;;10445514;28;20049;-74
2023/12/24 06:23:08;;;;;;;0.20;0.20;;;;;;;;;;10442676;28;20080;-75
2023/12/24 06:28:12;;;;;;;0.43;0.20;;;;;;;;;;10441893;28;20056;-74
2023/12/24 06:33:16;;;;;;;0.60;0.30;;;;;;;;;;10441355;28;20577;-75
2023/12/24 06:38:19;;;;;;;0.73;0.25;;;;;;;;;;10417730;28;20632;-75
2023/12/24 06:43:24;;;;;;;0.20;0.20;;;;;;;;;;10437481;28;20049;-75
2023/12/24 06:48:27;;;;;;;0.35;0.30;;;;;;;;;;10440200;28;20585;-75
2023/12/24 06:53:30;;;;;;;0.47;0.20;;;;;;;;;;10439197;28;20053;-75
2023/12/24 06:58:35;;;;;;;0.20;0.20;;;;;;;;;;10445178;28;20049;-75
2023/12/24 07:03:38;;;;;;;0.45;0.30;;;;;;;;;;10438843;28;20044;-75
2023/12/24 07:08:41;;;;;;;0.28;0.28;;;;;;;;;;10435329;28;20107;-75
2023/12/24 07:13:46;;;;;;;0.30;0.30;;;;;;;;;;10442777;28;20051;-75
2023/12/24 07:18:49;;;;;;;0.20;0.20;;;;;;;;;;10432931;28;20052;-75
2023/12/24 07:23:53;;;;;;;0.32;0.20;;;;;;;;;;10430275;28;20463;-74
2023/12/24 07:28:57;;;;;;;0.20;0.20;;;;;;;;;;10439684;28;20052;-74
2023/12/24 07:34:01;;;;;;;0.20;0.20;;;;;;;;;;10436584;28;20144;-75
2023/12/24 07:39:04;;;;;;;0.35;0.20;;;;;;;;;;10434416;28;20048;-74
2023/12/24 07:44:09;;;;;;;0.35;0.35;;;;;;;;;;10436184;28;20064;-74
2023/12/24 07:49:13;;;;;;;0.73;0.20;;;;;;;;;;10438078;28;20469;-74
2023/12/24 07:54:16;;;;;;;0.20;0.20;;;;;;;;;;10435069;28;20045;-74
2023/12/24 07:59:20;;;;;;;0.20;0.20;;;;;;;;;;10439066;28;20047;-74
2023/12/24 08:04:24;;;;;;;0.20;0.20;;;;;;;;;;10436516;28;20120;-74
2023/12/24 08:09:27;;;;;;;0.20;0.20;;;;;;;;;;10440312;28;20051;-75
2023/12/24 08:14:31;;;;;;;0.20;0.20;;;;;;;;;;10431799;28;20045;-75
2023/12/24 08:19:35;;;;;;;0.20;0.20;;;;;;;;;;10433622;28;20124;-75
2023/12/24 08:24:38;;;;;;;0.30;0.30;;;;;;;;;;10435340;28;20512;-75
2023/12/24 08:29:43;;;;;;;0.20;0.20;;;;;;;;;;10425175;28;20071;-75
2023/12/24 08:34:47;;;;;;;0.28;0.20;;;;;;;;;;10431976;28;20419;-74
2023/12/24 08:39:50;;;;;;;0.20;0.20;;;;;;;;;;10427376;28;20055;-74
2023/12/24 08:44:54;;;;;;;0.20;0.20;;;;;;;;;;10423144;28;20052;-74
2023/12/24 08:49:58;;;;;;;0.20;0.20;;;;;;;;;;10428079;28;20053;-75
2023/12/24 08:55:01;;;;;;;0.20;0.20;;;;;;;;;;10436938;28;20061;-75
2023/12/24 09:00:11;;;;;;;0.30;0.30;;;;;;;;;;10423486;28;20438;-75
2023/12/24 09:05:17;;;;;;;0.20;0.20;;;;;;;;;;10421674;28;20084;-75
2023/12/24 09:10:21;;;;;;;0.25;0.25;;;;;;;;;;10425327;28;20124;-74
2023/12/24 09:15:25;;;;;;;0.15;0.15;;;;;;;;;;10425978;28;20132;-75
2023/12/24 09:20:29;;;;;;;0.20;0.20;;;;;;;;;;10417613;28;20040;-75
2023/12/24 09:25:32;;;;;;;0.40;0.30;;;;;;;;;;10435504;28;20049;-74
2023/12/24 09:30:37;;;;;;;0.20;0.20;;;;;;;;;;10422354;28;20055;-74
2023/12/24 09:35:43;;;;;;;0.10;0.10;;;;;;;;;;10443714;28;20095;-74
2023/12/24 09:40:47;;;;;;;0.90;0.20;;;;;;;;;;10408803;28;20621;-75
2023/12/24 09:45:52;;;;;;;0.63;0.20;;;;;;;;;;10431299;28;20055;-74
2023/12/24 09:50:55;;;;;;;0.20;0.20;;;;;;;;;;10430706;28;20045;-75
2023/12/24 09:55:59;;;;;;;0.32;0.20;;;;;;;;;;10427192;28;20049;-75
2023/12/24 10:01:04;;;;;;;0.20;0.20;;;;;;;;;;10436342;28;20463;-74
2023/12/24 10:06:09;;;;;;;0.52;0.52;;;;;;;;;;10438242;28;20041;-75
2023/12/24 10:11:15;;;;;;;0.28;0.20;;;;;;;;;;10433338;28;20057;-75
2023/12/24 10:16:19;;;;;;;0.20;0.20;;;;;;;;;;10414391;28;20045;-74
2023/12/24 10:21:23;;;;;;;0.70;0.30;;;;;;;;;;10440357;28;20055;-74
2023/12/24 10:26:26;;;;;;;0.20;0.20;;;;;;;;;;10443789;28;20052;-74
2023/12/24 10:31:31;;;;;;;0.30;0.30;;;;;;;;;;10435050;28;20123;-74
2023/12/24 10:36:34;;;;;;;0.25;0.25;;;;;;;;;;10438473;28;20037;-74
2023/12/24 10:41:37;;;;;;;0.30;0.30;;;;;;;;;;10438041;28;20052;-74
2023/12/24 10:46:42;;;;;;;0.55;0.20;;;;;;;;;;10433374;28;20044;-75
2023/12/24 10:51:45;;;;;;;0.25;0.25;;;;;;;;;;10429841;28;20465;-75
2023/12/24 10:57:05;;;;;;;0.20;0.20;;;;;;;;;;10428139;28;20984;-74
2023/12/24 11:02:13;;;;;;;0.30;0.30;;;;;;;;;;10422753;28;20438;-74
2023/12/24 11:07:49;;;;;;;0.93;0.60;;;;;;;;;;10432075;28;20583;-74
2023/12/24 11:12:52;;;;;;;0.30;0.30;;;;;;;;;;10420857;28;20067;-75
2023/12/24 11:18:01;;;;;;;0.82;0.40;;;;;;;;;;10432492;28;20095;-74
2023/12/24 11:23:14;;;;;;;0.30;0.30;;;;;;;;;;10427880;28;20086;-75
2023/12/24 11:28:36;;;;;;;0.30;0.30;;;;;;;;;;10422938;28;20398;-75
2023/12/24 11:33:48;;;;;;;0.40;0.32;;;;;;;;;;10425390;28;20045;-74
2023/12/24 11:38:57;;;;;;;0.75;0.47;;;;;;;;;;10423344;28;20698;-75
2023/12/24 11:44:01;;;;;;;0.52;0.40;;;;;;;;;;10430370;28;20049;-75
2023/12/24 11:49:06;;;;;;;0.30;0.30;;;;;;;;;;10427047;28;20086;-74
2023/12/24 11:54:09;;;;;;;0.47;0.47;;;;;;;;;;10436060;28;20091;-75
2023/12/24 11:59:13;;;;;;;0.50;0.40;;;;;;;;;;10423969;23;22552;-74
2023/12/24 12:04:21;;;;;;;0.38;0.28;;;;;;;;;;10397352;28;20049;-74
2023/12/24 12:09:24;;;;;;;1.00;0.47;;;;;;;;;;10341659;28;20472;-75
2023/12/24 12:14:29;;;;;;;0.50;0.40;;;;;;;;;;10361827;28;20053;-74
2023/12/24 12:19:34;;;;;;;0.30;0.30;;;;;;;;;;10343595;28;20045;-75
2023/12/24 12:24:37;;;;;;;0.20;0.20;;;;;;;;;;10362357;28;20046;-75
2023/12/24 12:29:41;;;;;;;0.40;0.30;;;;;;;;;;10343680;28;20072;-75
2023/12/24 12:34:46;;;;;;;0.32;0.32;;;;;;;;;;10352318;28;20050;-75
2023/12/24 12:39:49;;;;;;;0.70;0.60;;;;;;;;;;10355048;28;20072;-75
2023/12/24 12:44:54;;;;;;;0.40;0.40;;;;;;;;;;10357862;28;20132;-74
2023/12/24 12:49:59;;;;;;;0.40;0.40;;;;;;;;;;10359007;28;20646;-75
2023/12/24 12:55:04;;;;;;;0.40;0.40;;;;;;;;;;10354167;28;20471;-74
2023/12/24 13:00:09;;;;;;;0.80;0.40;;;;;;;;;;10366307;28;20046;-75
2023/12/24 13:05:35;;;;;;;0.30;0.30;;;;;;;;;;10365024;28;20409;-75
2023/12/24 13:10:38;;;;;;;0.77;0.53;;;;;;;;;;10342123;28;20060;-74
2023/12/24 13:16:04;;;;;;;0.30;0.30;;;;;;;;;;10351136;28;20049;-75
2023/12/24 13:21:23;;;;;;;1.15;0.73;;;;;;;;;;10346430;28;20049;-75
2023/12/24 13:26:31;;;;;;;0.28;0.20;;;;;;;;;;10338925;28;20041;-75
2023/12/24 13:31:39;;;;;;;3.78;2.22;;;;;;;;;;10331903;28;20052;-75
2023/12/24 13:37:01;;;;;;;1.52;0.50;;;;;;;;;;10352067;28;20046;-75
2023/12/24 13:42:28;;;;;;;0.20;0.20;;;;;;;;;;10353832;28;20132;-75
2023/12/24 13:47:31;;;;;;;0.30;0.30;;;;;;;;;;10347592;28;20068;-75
2023/12/24 13:52:41;;;;;;;0.40;0.20;;;;;;;;;;10359849;28;20046;-75
2023/12/24 13:57:47;;;;;;;0.20;0.20;;;;;;;;;;10309279;28;20058;-75
2023/12/24 14:02:53;;;;;;;0.25;0.20;;;;;;;;;;10362203;28;20418;-76
2023/12/24 14:08:08;;;;;;;0.57;0.50;;;;;;;;;;10355899;28;20084;-74
2023/12/24 14:13:15;;;;;;;0.95;0.73;;;;;;;;;;10367300;28;20475;-75
2023/12/24 14:18:18;;;;;;;0.40;0.40;;;;;;;;;;10365264;28;20182;-75
2023/12/24 14:23:26;;;;;;;0.20;0.20;;;;;;;;;;10371773;28;20054;-75
2023/12/24 14:29:01;;;;;;;0.90;0.60;;;;;;;;;;10363345;28;20049;-75
2023/12/24 14:34:23;;;;;;;0.88;0.35;;;;;;;;;;10364829;28;20060;-75
2023/12/24 14:40:18;;;;;;;0.88;0.40;;;;;;;;;;10367182;28;20140;-75
2023/12/24 14:45:26;;;;;;;0.30;0.30;;;;;;;;;;10359392;28;20034;-76
2023/12/24 14:50:36;;;;;;;0.63;0.60;;;;;;;;;;10370637;28;20073;-75
2023/12/24 14:55:44;;;;;;;0.30;0.30;;;;;;;;;;10364377;28;20125;-75
2023/12/24 15:00:48;;;;;;;0.30;0.30;;;;;;;;;;10372233;28;20057;-75
2023/12/24 15:05:55;;;;;;;0.30;0.30;;;;;;;;;;10359815;28;20108;-75
2023/12/24 15:11:00;;;;;;;0.50;0.40;;;;;;;;;;10345099;28;20050;-75
2023/12/24 15:16:03;;;;;;;0.30;0.30;;;;;;;;;;10361517;28;20058;-75
2023/12/24 15:21:09;;;;;;;0.55;0.55;;;;;;;;;;10362890;28;20121;-75
2023/12/24 15:26:15;;;;;;;;;;;;;;;;;;10362798;28;20297;-75
2023/12/24 15:31:19;;;;;;;0.30;0.30;;;;;;;;;;10361538;28;19929;-75
2023/12/24 15:36:22;;;;;;;0.25;0.20;;;;;;;;;;10345215;28;20057;-75
2023/12/24 15:41:27;;;;;;;0.68;0.55;;;;;;;;;;10358997;28;20033;-74
2023/12/24 15:46:30;;;;;;;0.30;0.30;;;;;;;;;;10359089;28;20073;-74
2023/12/24 15:51:33;;;;;;;0.47;0.43;;;;;;;;;;10358310;28;20058;-74
2023/12/24 15:56:40;;;;;;;0.65;0.65;;;;;;;;;;10373285;28;20065;-75
2023/12/24 16:01:43;;;;;;;0.33;0.33;;;;;;;;;;10368087;28;20042;-74
2023/12/24 16:06:47;;;;;;;1.02;0.80;;;;;;;;;;10361951;28;20065;-75
2023/12/24 16:11:51;;;;;;;0.95;0.63;;;;;;;;;;10348356;28;20575;-75
2023/12/24 16:16:55;;;;;;;0.38;0.30;;;;;;;;;;10349016;28;20045;-75
2023/12/24 16:21:58;;;;;;;1.23;0.85;;;;;;;;;;10347825;28;20141;-75
2023/12/24 16:27:03;;;;;;;2.40;0.80;;;;;;;;;;10358585;28;20048;-75
2023/12/24 16:32:06;;;;;;;0.30;0.30;;;;;;;;;;10360450;28;20050;-74
2023/12/24 16:37:10;;;;;;;1.08;0.60;;;;;;;;;;10366490;28;20073;-74
2023/12/24 16:42:14;;;;;;;1.38;0.60;;;;;;;;;;10360060;28;20068;-74
2023/12/24 16:47:18;;;;;;;0.70;0.35;;;;;;;;;;10356179;28;20408;-74
2023/12/24 16:52:21;;;;;;;0.88;0.60;;;;;;;;;;10357032;28;20203;-75
2023/12/24 16:57:25;;;;;;;0.40;0.40;;;;;;;;;;10343150;28;20434;-74
2023/12/24 17:02:29;;;;;;;0.60;0.47;;;;;;;;;;10351472;28;20503;-74
2023/12/24 17:07:32;;;;;;;2.10;0.50;;;;;;;;;;10345833;28;20049;-74
2023/12/24 17:12:37;;;;;;;2.40;0.77;;;;;;;;;;10352674;28;20053;-75
2023/12/24 17:17:40;;;;;;;1.67;0.60;;;;;;;;;;10354267;28;20838;-75
2023/12/24 17:22:43;;;;;;;1.55;0.73;;;;;;;;;;10360533;28;20111;-75
2023/12/24 17:27:48;;;;;;;1.80;0.60;;;;;;;;;;10348954;28;20076;-75
2023/12/24 17:32:51;;;;;;;1.45;0.65;;;;;;;;;;10324735;28;20050;-75
2023/12/24 17:37:54;;;;;;;4.05;1.20;;;;;;;;;;10357768;28;20558;-75
2023/12/24 17:42:59;;;;;;;2.05;0.80;;;;;;;;;;10350543;28;20050;-75
2023/12/24 17:48:03;;;;;;;1.48;0.60;;;;;;;;;;10325468;28;20132;-74
2023/12/24 17:53:09;;;;;;;3.00;1.00;;;;;;;;;;10353157;28;20040;-74
2023/12/24 17:58:14;;;;;;;1.77;1.10;;;;;;;;;;10361205;28;20046;-75
2023/12/24 18:03:18;;;;;;;1.17;0.80;;;;;;;;;;10432591;23;20390;-75
2023/12/24 18:08:21;;;;;;;4.93;1.00;;;;;;;;;;10437821;28;20729;-74
2023/12/24 18:13:25;;;;;;;1.75;1.20;;;;;;;;;;10431929;28;20136;-74
2023/12/24 18:18:29;;;;;;;3.80;1.10;;;;;;;;;;10399893;28;20453;-74
2023/12/24 18:23:32;;;;;;;4.75;1.30;;;;;;;;;;10441841;28;20040;-75
2023/12/24 18:28:37;;;;;;;4.25;1.92;;;;;;;;;;10415817;28;20635;-75
2023/12/24 18:33:40;;;;;;;3.28;1.63;;;;;;;;;;10437463;28;20060;-75
2023/12/24 18:38:44;;;;;;;4.05;1.63;;;;;;;;;;10436609;28;20037;-74
2023/12/24 18:43:51;;;;;;;7.27;2.47;;;;;;;;;;10440584;28;20231;-75
2023/12/24 18:48:54;;;;;;;4.57;2.10;;;;;;;;;;10435388;28;20227;-74
2023/12/24 18:53:57;;;;;;;4.85;1.33;;;;;;;;;;10440210;28;20810;-74
2023/12/24 18:59:02;;;;;;;4.47;1.50;;;;;;;;;;10438362;28;20065;-74
2023/12/24 19:04:05;;;;;;;6.40;1.85;;;;;;;;;;10433798;28;20049;-74
2023/12/24 19:09:09;;;;;;;3.92;1.50;;;;;;;;;;10436615;28;20068;-75
2023/12/24 19:14:13;;;;;;;4.53;1.75;;;;;;;;;;10437503;28;20056;-74
2023/12/24 19:19:17;;;;;;;3.80;1.48;;;;;;;;;;10434603;28;20044;-74
2023/12/24 19:24:23;;;;;;;3.40;1.05;;;;;;;;;;10436794;28;20152;-74
2023/12/24 19:29:28;;;;;;;5.40;1.77;;;;;;;;;;10438006;28;20637;-74
2023/12/24 19:34:31;;;;;;;3.85;1.60;;;;;;;;;;10436149;28;20041;-74
2023/12/24 19:39:35;;;;;;;4.18;1.38;;;;;;;;;;10435611;28;20049;-74
2023/12/24 19:44:39;;;;;;;7.60;2.25;;;;;;;;;;10436861;28;20127;-74
2023/12/24 19:49:43;;;;;;;4.10;1.50;;;;;;;;;;10423752;28;20051;-74
2023/12/24 19:54:46;;;;;;;4.18;1.65;;;;;;;;;;10431970;28;20037;-74
2023/12/24 19:59:50;;;;;;;7.07;1.80;;;;;;;;;;10393506;28;1012541;-74
2023/12/24 20:04:54;;;;;;;5.13;2.10;;;;;;;;;;10432392;28;20049;-74
2023/12/24 20:09:57;;;;;;;3.72;1.40;;;;;;;;;;10431285;28;20053;-74
2023/12/24 20:15:02;;;;;;;5.80;1.70;;;;;;;;;;10437717;28;20049;-74
2023/12/24 20:20:07;;;;;;;5.82;1.40;;;;;;;;;;10432824;28;20406;-74
2023/12/24 20:25:10;;;;;;;5.00;1.15;;;;;;;;;;10433960;28;20544;-74
2023/12/24 20:30:15;;;;;;;5.28;1.40;;;;;;;;;;10430010;28;20048;-74
2023/12/24 20:35:18;;;;;;;3.33;1.02;;;;;;;;;;10437059;28;20049;-74
2023/12/24 20:40:22;;;;;;;5.72;1.90;;;;;;;;;;10434229;28;20518;-74
2023/12/24 20:45:27;;;;;;;4.55;1.65;;;;;;;;;;10433765;28;20049;-74
2023/12/24 20:50:30;;;;;;;4.68;1.38;;;;;;;;;;10432497;28;20051;-74
2023/12/24 20:55:33;;;;;;;2.67;1.35;;;;;;;;;;10405326;28;20061;-74
2023/12/24 21:00:38;;;;;;;4.25;1.13;;;;;;;;;;10433218;28;20052;-74
2023/12/24 21:05:42;;;;;;;3.17;1.00;;;;;;;;;;10428511;28;20048;-74
2023/12/24 21:10:46;;;;;;;4.28;1.50;;;;;;;;;;10426361;28;20041;-74
2023/12/24 21:15:50;;;;;;;5.28;1.10;;;;;;;;;;10433325;28;20648;-75
2023/12/24 21:20:55;;;;;;;2.05;1.17;;;;;;;;;;10429710;28;20705;-75
2023/12/24 21:25:59;;;;;;;3.97;1.45;;;;;;;;;;10413017;28;20045;-74
2023/12/24 21:31:04;;;;;;;3.80;1.08;;;;;;;;;;10431728;28;20839;-74
2023/12/24 21:36:07;;;;;;;3.80;1.20;;;;;;;;;;10423660;28;20037;-74
2023/12/24 21:41:11;;;;;;;5.57;1.40;;;;;;;;;;10426284;28;20045;-74
2023/12/24 21:46:15;;;;;;;4.68;1.58;;;;;;;;;;10427177;28;20047;-74
2023/12/24 21:51:18;;;;;;;5.05;1.40;;;;;;;;;;10434417;28;20490;-74
2023/12/24 21:56:22;;;;;;;1.90;0.90;;;;;;;;;;10442108;28;20036;-74
2023/12/24 22:01:26;;;;;;;3.45;1.30;;;;;;;;;;10427188;28;20401;-74
2023/12/24 22:06:31;;;;;;;3.92;1.60;;;;;;;;;;10420278;28;20049;-74
2023/12/24 22:11:34;;;;;;;6.15;1.33;;;;;;;;;;10443203;28;20607;-74
2023/12/24 22:16:39;;;;;;;2.55;1.00;;;;;;;;;;10446570;28;20043;-74
2023/12/24 22:21:45;;;;;;;3.97;0.90;;;;;;;;;;10435387;28;20048;-74
2023/12/24 22:26:48;;;;;;;2.67;0.82;;;;;;;;;;10421243;28;20056;-74
2023/12/24 22:31:53;;;;;;;2.55;1.08;;;;;;;;;;10441521;28;20060;-74
2023/12/24 22:36:56;;;;;;;2.42;1.17;;;;;;;;;;10428603;28;20045;-74
2023/12/24 22:42:00;;;;;;;4.80;1.40;;;;;;;;;;10433698;28;20044;-74
2023/12/24 22:47:05;;;;;;;3.30;1.38;;;;;;;;;;10417593;28;20728;-74
2023/12/24 22:52:08;;;;;;;3.35;1.20;;;;;;;;;;10439296;28;20033;-74
2023/12/24 22:57:11;;;;;;;3.03;1.10;;;;;;;;;;10438730;28;20053;-74
2023/12/24 23:02:17;;;;;;;4.75;1.33;;;;;;;;;;10438907;28;20038;-74
2023/12/24 23:07:20;;;;;;;4.50;1.20;;;;;;;;;;10407844;28;20126;-74
2023/12/24 23:12:23;;;;;;;5.28;1.10;;;;;;;;;;10438737;28;20041;-74
2023/12/24 23:17:28;;;;;;;4.43;1.35;;;;;;;;;;10432693;28;20596;-74
2023/12/24 23:22:31;;;;;;;5.55;2.80;;;;;;;;;;10417984;28;20048;-74
2023/12/24 23:27:34;;;;;;;6.30;1.98;;;;;;;;;;10425714;28;20041;-74
2023/12/24 23:32:39;;;;;;;4.07;1.42;;;;;;;;;;10430218;28;20107;-74
2023/12/24 23:37:42;;;;;;;2.70;1.50;;;;;;;;;;10416428;28;20041;-74
2023/12/24 23:42:46;;;;;;;3.55;1.48;;;;;;;;;;10425584;28;20045;-74
2023/12/24 23:47:51;;;;;;;2.92;0.95;;;;;;;;;;10412022;28;20049;-75
2023/12/24 23:52:54;;;;;;;4.75;1.00;;;;;;;;;;10436469;28;20041;-74
2023/12/24 23:57:58;;;;;;;4.10;1.30;;;;;;;;;;10437204;28;20128;-74
